Time;durP1;ratioP1;P1;durP2;ratioP2;P2;SDS_P1;SDS_P2;PMS_P1;PMS_P2;Temp;Humidity;BMP_temperature;BMP_pressure;BME280_temperature;BME280_humidity;BME280_pressure;Samples;Min_cycle;Max_cycle;Signal;HPM_P1;HPM_P2
2022/07/06 00:00:27;;;;;;;5.50;2.80;;;17.10;99.90;;;;;;5006747;28;21646;-82
2022/07/06 00:02:52;;;;;;;7.33;3.27;;;17.10;99.90;;;;;;5011119;28;20201;-86
2022/07/06 00:05:18;;;;;;;3.30;3.00;;;17.30;99.90;;;;;;5019046;28;20213;-84
2022/07/06 00:07:43;;;;;;;5.20;2.57;;;17.30;99.90;;;;;;5016287;28;20201;-86
2022/07/06 00:10:09;;;;;;;5.00;2.80;;;17.40;99.90;;;;;;5015911;28;20210;-85
2022/07/06 00:12:34;;;;;;;4.37;3.07;;;17.40;99.90;;;;;;5018324;28;20202;-85
2022/07/06 00:15:00;;;;;;;4.83;2.93;;;17.40;99.90;;;;;;5007888;28;20178;-84
2022/07/06 00:17:25;;;;;;;5.37;3.20;;;17.40;99.90;;;;;;5013188;28;20569;-86
2022/07/06 00:19:51;;;;;;;2.97;2.67;;;17.40;99.90;;;;;;5012810;28;20240;-83
2022/07/06 00:22:16;;;;;;;9.77;3.13;;;17.40;99.90;;;;;;5021319;28;20634;-83
2022/07/06 00:24:42;;;;;;;4.70;3.10;;;17.30;99.90;;;;;;5025419;28;20190;-86
2022/07/06 00:27:08;;;;;;;4.27;2.97;;;17.30;99.90;;;;;;5015625;28;21332;-85
2022/07/06 00:29:33;;;;;;;3.63;2.90;;;17.30;99.90;;;;;;5016126;28;20209;-83
2022/07/06 00:31:59;;;;;;;5.10;2.63;;;17.30;99.90;;;;;;5012747;28;20199;-84
2022/07/06 00:34:24;;;;;;;3.90;2.40;;;17.20;99.90;;;;;;5014355;28;20197;-86
2022/07/06 00:36:50;;;;;;;3.40;2.60;;;17.20;99.90;;;;;;5013292;28;20218;-84
2022/07/06 00:39:15;;;;;;;5.50;2.83;;;17.20;99.90;;;;;;5017884;28;20206;-82
2022/07/06 00:41:41;;;;;;;3.00;2.73;;;17.40;99.90;;;;;;5012617;28;20265;-84
2022/07/06 00:44:10;;;;;;;4.40;2.50;;;17.60;99.90;;;;;;5026923;28;20186;-85
2022/07/06 00:46:35;;;;;;;10.80;2.60;;;17.70;99.90;;;;;;5025360;28;20277;-85
2022/07/06 00:49:01;;;;;;;7.17;3.13;;;17.70;99.90;;;;;;5012918;28;20556;-85
2022/07/06 00:51:33;;;;;;;3.80;2.50;;;17.80;99.90;;;;;;5021765;28;20642;-85
2022/07/06 00:54:02;;;;;;;3.67;2.50;;;17.80;99.90;;;;;;5018650;28;20560;-86
2022/07/06 00:56:30;;;;;;;7.07;2.97;;;17.70;99.90;;;;;;5013693;28;20443;-84
2022/07/06 00:58:56;;;;;;;6.47;2.63;;;17.70;99.90;;;;;;5010899;28;20977;-84
2022/07/06 01:01:22;;;;;;;3.20;2.37;;;17.70;99.90;;;;;;5015130;28;20450;-84
2022/07/06 01:03:47;;;;;;;4.83;2.60;;;17.60;99.90;;;;;;5009508;28;20216;-86
2022/07/06 01:06:13;;;;;;;5.70;2.40;;;17.60;99.90;;;;;;5010283;28;20603;-85
2022/07/06 01:08:39;;;;;;;4.30;2.17;;;17.60;99.90;;;;;;5016306;28;20207;-86
2022/07/06 01:11:05;;;;;;;3.23;2.27;;;17.60;99.90;;;;;;5017022;28;20578;-85
2022/07/06 01:13:32;;;;;;;5.03;2.40;;;17.50;99.90;;;;;;5010104;28;20206;-83
2022/07/06 01:15:58;;;;;;;3.83;2.13;;;17.40;99.90;;;;;;5013951;28;20441;-86
2022/07/06 01:18:23;;;;;;;3.60;3.20;;;17.40;99.90;;;;;;5010794;28;20448;-87
2022/07/06 01:20:49;;;;;;;4.37;2.47;;;17.40;99.90;;;;;;5015309;28;20642;-82
2022/07/06 01:23:15;;;;;;;5.70;2.43;;;17.40;99.90;;;;;;5015182;28;20445;-84
2022/07/06 01:25:40;;;;;;;2.93;2.70;;;17.40;99.90;;;;;;5011074;28;20270;-85
2022/07/06 01:28:06;;;;;;;4.43;2.67;;;17.40;99.90;;;;;;5008694;28;20190;-84
2022/07/06 01:30:32;;;;;;;3.30;2.50;;;17.30;99.90;;;;;;5015333;28;20189;-87
2022/07/06 01:32:57;;;;;;;4.10;2.07;;;17.20;99.90;;;;;;5008923;28;20241;-85
2022/07/06 01:35:26;;;;;;;6.60;2.87;;;17.10;99.90;;;;;;5008567;28;20429;-85
2022/07/06 01:37:51;;;;;;;3.10;2.80;;;17.10;99.90;;;;;;5018684;28;20672;-85
2022/07/06 01:40:17;;;;;;;4.80;2.60;;;17.00;99.90;;;;;;5011116;28;20558;-84
2022/07/06 01:42:42;;;;;;;3.40;2.13;;;16.80;99.90;;;;;;5015024;28;20486;-86
2022/07/06 01:45:09;;;;;;;8.97;2.20;;;16.90;99.90;;;;;;5011891;28;20788;-85
2022/07/06 01:47:34;;;;;;;4.60;2.73;;;16.90;99.90;;;;;;5019302;28;20186;-86
2022/07/06 01:50:03;;;;;;;6.17;3.07;;;16.90;99.90;;;;;;5007172;28;20453;-85
2022/07/06 01:52:29;;;;;;;5.30;3.10;;;16.80;99.90;;;;;;5018441;28;20201;-85
2022/07/06 01:54:56;;;;;;;7.60;2.70;;;16.70;99.90;;;;;;5017990;28;20433;-85
2022/07/06 01:57:21;;;;;;;3.53;3.10;;;16.50;99.90;;;;;;5015947;28;20198;-84
2022/07/06 01:59:47;;;;;;;3.60;2.20;;;16.40;99.90;;;;;;5011984;28;20527;-85
2022/07/06 02:02:13;;;;;;;4.90;2.63;;;16.80;99.90;;;;;;5011880;28;20190;-83
2022/07/06 02:04:38;;;;;;;7.03;2.90;;;16.30;99.90;;;;;;5012053;28;20185;-85
2022/07/06 02:07:04;;;;;;;3.70;2.93;;;16.10;99.90;;;;;;5011692;28;20441;-82
2022/07/06 02:09:30;;;;;;;9.33;3.23;;;16.10;99.90;;;;;;5014019;28;21283;-86
2022/07/06 02:11:55;;;;;;;3.67;2.90;;;16.00;99.90;;;;;;5011988;28;20210;-83
2022/07/06 02:14:21;;;;;;;6.77;2.80;;;16.00;99.90;;;;;;5009336;28;20182;-84
2022/07/06 02:16:46;;;;;;;6.63;3.10;;;15.90;99.90;;;;;;5009080;28;20179;-83
2022/07/06 02:19:12;;;;;;;6.43;3.30;;;16.10;99.90;;;;;;4998522;28;21215;-83
2022/07/06 02:21:37;;;;;;;8.70;2.70;;;15.80;99.90;;;;;;5008858;28;20190;-83
2022/07/06 02:24:03;;;;;;;5.00;2.60;;;15.80;99.90;;;;;;5010062;28;20193;-81
2022/07/06 02:26:28;;;;;;;2.60;2.30;;;15.70;99.90;;;;;;5010708;28;20186;-84
2022/07/06 02:28:54;;;;;;;10.70;3.23;;;15.70;99.90;;;;;;5005631;28;20554;-82
2022/07/06 02:31:20;;;;;;;4.43;3.00;;;15.70;99.90;;;;;;5005390;28;20187;-83
2022/07/06 02:33:45;;;;;;;5.13;2.60;;;15.60;99.90;;;;;;5001674;28;20269;-83
2022/07/06 02:36:11;;;;;;;3.20;2.90;;;15.60;99.90;;;;;;5007869;28;20314;-85
2022/07/06 02:38:36;;;;;;;6.77;3.43;;;15.60;99.90;;;;;;5001347;28;20838;-82
2022/07/06 02:41:02;;;;;;;3.83;2.70;;;15.70;99.90;;;;;;5013676;28;20174;-85
2022/07/06 02:43:27;;;;;;;10.90;3.83;;;15.70;99.90;;;;;;5003610;28;20185;-83
2022/07/06 02:45:53;;;;;;;3.50;3.20;;;15.60;99.90;;;;;;5008826;28;21173;-82
2022/07/06 02:51:41;;;;;;;7.67;3.27;;;15.60;99.90;;;;;;4999626;28;20199;-85
2022/07/06 02:54:06;;;;;;;3.13;2.83;;;15.60;99.90;;;;;;5013121;28;21051;-85
2022/07/06 02:56:32;;;;;;;5.00;3.50;;;15.50;99.90;;;;;;5008162;28;20315;-82
2022/07/06 02:58:57;;;;;;;4.17;2.43;;;15.50;99.90;;;;;;5001017;28;20307;-85
2022/07/06 03:01:23;;;;;;;6.77;3.70;;;15.50;99.90;;;;;;5010535;28;20178;-83
2022/07/06 03:03:48;;;;;;;4.53;2.50;;;15.50;99.90;;;;;;5012112;28;20631;-85
2022/07/06 03:06:14;;;;;;;4.00;2.90;;;15.50;99.90;;;;;;5009615;28;20206;-83
2022/07/06 03:08:39;;;;;;;3.43;3.00;;;15.40;99.90;;;;;;5007725;28;20201;-85
2022/07/06 03:11:05;;;;;;;4.23;2.87;;;15.40;99.90;;;;;;5014122;28;20193;-84
2022/07/06 03:13:32;;;;;;;7.20;3.50;;;15.50;99.90;;;;;;5011924;28;20217;-82
2022/07/06 03:15:57;;;;;;;8.40;2.57;;;15.40;99.90;;;;;;5009874;28;20445;-83
2022/07/06 03:18:23;;;;;;;6.23;3.10;;;15.50;99.90;;;;;;5003349;28;20751;-83
2022/07/06 03:20:48;;;;;;;4.50;3.10;;;15.50;99.90;;;;;;5010476;28;20193;-84
2022/07/06 03:23:14;;;;;;;3.60;3.20;;;15.50;99.90;;;;;;5011309;28;20194;-83
2022/07/06 03:25:39;;;;;;;4.27;2.80;;;15.50;99.90;;;;;;5016461;28;20209;-84
2022/07/06 03:28:05;;;;;;;3.63;2.60;;;15.50;99.90;;;;;;5012713;28;21145;-84
2022/07/06 03:30:30;;;;;;;4.20;3.50;;;15.50;99.90;;;;;;5011683;28;20216;-86
2022/07/06 03:32:56;;;;;;;6.00;3.60;;;15.50;99.90;;;;;;5008413;28;20218;-85
2022/07/06 03:35:21;;;;;;;3.60;3.30;;;15.60;99.90;;;;;;5009693;28;20186;-84
2022/07/06 03:37:47;;;;;;;4.23;3.00;;;15.70;99.90;;;;;;5010788;28;20181;-84
2022/07/06 03:40:13;;;;;;;9.13;3.03;;;15.70;99.90;;;;;;5013459;28;20240;-84
2022/07/06 03:42:39;;;;;;;4.20;3.37;;;15.70;99.90;;;;;;5016950;28;20317;-82
2022/07/06 03:45:05;;;;;;;5.37;3.60;;;15.70;99.90;;;;;;5011178;28;20504;-85
2022/07/06 03:47:30;;;;;;;9.67;3.63;;;15.80;99.90;;;;;;5014931;28;20190;-85
2022/07/06 03:49:56;;;;;;;4.50;2.87;;;15.80;99.90;;;;;;5011972;28;20476;-84
2022/07/06 03:52:22;;;;;;;7.10;3.63;;;15.80;99.90;;;;;;5011950;28;21167;-85
2022/07/06 03:54:47;;;;;;;7.70;3.30;;;15.80;99.90;;;;;;5012103;28;20182;-84
2022/07/06 03:57:13;;;;;;;3.47;3.17;;;15.90;99.90;;;;;;5012526;28;20650;-84
2022/07/06 03:59:40;;;;;;;5.30;3.53;;;15.90;99.90;;;;;;5009853;28;20411;-86
2022/07/06 04:02:05;;;;;;;4.03;3.63;;;15.90;99.90;;;;;;5010233;28;20179;-85
2022/07/06 04:04:33;;;;;;;4.00;3.57;;;15.90;99.90;;;;;;5013240;28;20448;-83
2022/07/06 04:06:58;;;;;;;11.23;4.20;;;16.00;99.90;;;;;;5018104;28;20328;-85
2022/07/06 04:09:24;;;;;;;9.50;4.67;;;16.00;99.90;;;;;;5017857;28;20583;-85
2022/07/06 04:11:49;;;;;;;4.90;3.73;;;15.90;99.90;;;;;;5024243;28;20438;-85
2022/07/06 04:14:15;;;;;;;4.43;3.70;;;16.00;99.90;;;;;;5028063;28;20187;-85
2022/07/06 04:16:40;;;;;;;8.90;4.50;;;16.10;99.90;;;;;;5017444;28;20183;-84
2022/07/06 04:19:06;;;;;;;6.57;5.07;;;16.10;99.90;;;;;;5018342;28;20236;-86
2022/07/06 04:21:31;;;;;;;15.70;5.67;;;16.30;99.90;;;;;;5011166;28;20657;-84
2022/07/06 04:23:57;;;;;;;7.40;3.70;;;17.10;99.90;;;;;;5008681;28;20565;-85
2022/07/06 04:26:23;;;;;;;4.40;3.00;;;18.00;99.90;;;;;;5017387;28;20189;-82
2022/07/06 04:28:48;;;;;;;7.07;3.80;;;19.20;99.90;;;;;;5015728;28;20202;-84
2022/07/06 04:31:15;;;;;;;7.20;4.30;;;20.20;99.90;;;;;;5001466;28;20213;-85
2022/07/06 04:33:42;;;;;;;4.23;3.63;;;20.50;99.90;;;;;;5003304;28;20205;-86
2022/07/06 04:36:07;;;;;;;4.30;3.70;;;21.30;99.90;;;;;;5007035;28;20433;-86
2022/07/06 04:38:33;;;;;;;5.50;3.80;;;21.10;99.90;;;;;;5012384;28;20889;-85
2022/07/06 04:40:58;;;;;;;5.47;2.90;;;21.60;99.90;;;;;;5015296;28;20178;-86
2022/07/06 04:43:24;;;;;;;7.97;4.00;;;21.70;99.90;;;;;;5008496;28;20191;-84
2022/07/06 04:45:49;;;;;;;4.20;3.70;;;21.80;99.90;;;;;;5016751;28;22030;-85
2022/07/06 04:48:15;;;;;;;6.00;3.33;;;22.40;99.90;;;;;;5007720;28;20263;-84
2022/07/06 04:50:40;;;;;;;8.10;4.13;;;22.50;99.90;;;;;;5012483;28;20187;-86
2022/07/06 04:53:06;;;;;;;11.33;3.90;;;22.70;99.10;;;;;;5007417;28;20626;-85
2022/07/06 04:55:32;;;;;;;7.33;4.80;;;23.00;97.70;;;;;;4998143;28;20765;-84
2022/07/06 04:57:57;;;;;;;5.43;3.67;;;23.30;97.30;;;;;;4983766;28;20174;-84
2022/07/06 05:00:23;;;;;;;3.87;3.50;;;23.50;95.60;;;;;;5007715;28;21500;-84
2022/07/06 05:02:48;;;;;;;5.50;3.77;;;23.00;95.40;;;;;;4991000;28;21267;-84
2022/07/06 05:05:14;;;;;;;4.40;3.20;;;23.60;95.30;;;;;;4996414;28;20181;-84
2022/07/06 05:07:39;;;;;;;7.47;4.23;;;24.50;95.20;;;;;;5020595;28;20198;-85
2022/07/06 05:10:09;;;;;;;8.17;4.10;;;25.20;93.00;;;;;;4998355;28;20209;-85
2022/07/06 05:12:35;;;;;;;4.60;3.73;;;24.20;91.70;;;;;;5017175;28;20202;-84
2022/07/06 05:15:01;;;;;;;4.90;3.23;;;22.00;94.30;;;;;;5005977;28;20503;-83
2022/07/06 05:17:27;;;;;;;10.40;4.80;;;21.50;97.30;;;;;;5008418;28;20182;-83
2022/07/06 05:19:52;;;;;;;7.23;4.40;;;20.40;99.20;;;;;;5018840;28;20294;-83
2022/07/06 05:22:18;;;;;;;5.47;3.80;;;20.50;99.90;;;;;;5036906;28;21162;-84
2022/07/06 05:24:44;;;;;;;7.20;4.90;;;20.50;99.90;;;;;;5019930;28;20317;-83
2022/07/06 05:27:10;;;;;;;9.53;4.60;;;20.60;99.90;;;;;;5013532;28;20464;-85
2022/07/06 05:29:36;;;;;;;5.30;4.27;;;21.20;99.90;;;;;;5011674;28;20194;-86
2022/07/06 05:32:01;;;;;;;5.57;4.03;;;22.90;99.70;;;;;;5012571;28;20293;-87
2022/07/06 05:34:27;;;;;;;5.23;3.63;;;22.80;96.10;;;;;;5016555;28;20460;-86
2022/07/06 05:36:53;;;;;;;4.37;3.80;;;22.50;97.40;;;;;;5012846;28;20440;-85
2022/07/06 05:39:20;;;;;;;6.70;3.43;;;21.60;98.70;;;;;;5013000;28;20221;-85
2022/07/06 05:41:46;;;;;;;6.03;4.37;;;21.90;99.70;;;;;;5019772;28;21210;-84
2022/07/06 05:44:12;;;;;;;5.33;4.10;;;22.20;98.30;;;;;;5009957;28;20444;-85
2022/07/06 05:46:38;;;;;;;6.43;3.90;;;23.90;97.70;;;;;;5010316;28;20430;-84
2022/07/06 05:51:49;;;;;;;10.70;4.70;;;23.10;94.70;;;;;;5019186;28;20220;-86
2022/07/06 05:54:14;;;;;;;4.07;3.37;;;24.70;93.90;;;;;;5015201;28;20428;-83
2022/07/06 05:56:40;;;;;;;9.33;4.93;;;24.40;92.40;;;;;;5021179;28;20487;-86
2022/07/06 05:59:06;;;;;;;4.13;3.60;;;23.10;93.90;;;;;;5018018;28;20638;-85
2022/07/06 06:01:31;;;;;;;9.20;4.10;;;22.90;94.70;;;;;;5018121;28;20235;-86
2022/07/06 06:03:57;;;;;;;6.03;3.50;;;23.20;96.40;;;;;;5018003;28;20183;-86
2022/07/06 06:06:22;;;;;;;10.40;4.20;;;24.10;94.50;;;;;;5020992;28;20182;-87
2022/07/06 06:08:48;;;;;;;5.80;4.47;;;24.90;92.70;;;;;;5021987;28;20217;-86
2022/07/06 06:11:13;;;;;;;4.80;3.40;;;24.50;92.20;;;;;;5018135;28;20179;-86
2022/07/06 06:13:39;;;;;;;4.53;4.13;;;24.40;92.40;;;;;;5012482;28;20743;-86
2022/07/06 06:16:04;;;;;;;12.30;4.87;;;24.80;92.00;;;;;;5014253;28;20193;-86
2022/07/06 06:18:30;;;;;;;5.00;3.23;;;25.80;90.40;;;;;;5022415;28;20257;-85
2022/07/06 06:20:55;;;;;;;4.07;3.30;;;25.40;87.30;;;;;;5014657;28;20209;-86
2022/07/06 06:23:21;;;;;;;4.80;3.73;;;26.20;88.70;;;;;;5014594;28;20191;-85
2022/07/06 06:25:47;;;;;;;4.40;3.60;;;25.60;85.20;;;;;;5015775;28;20190;-85
2022/07/06 06:28:12;;;;;;;11.17;4.00;;;26.70;84.60;;;;;;5012958;28;20586;-86
2022/07/06 06:30:39;;;;;;;4.83;4.00;;;26.80;85.50;;;;;;5013066;28;20437;-87
2022/07/06 06:33:24;;;;;;;5.20;2.93;;;26.70;81.30;;;;;;5013100;28;20213;-86
2022/07/06 06:35:52;;;;;;;4.40;3.20;;;25.40;84.10;;;;;;5014576;28;20468;-85
2022/07/06 06:38:20;;;;;;;6.83;3.30;;;24.50;86.00;;;;;;5015987;28;20428;-86
2022/07/06 06:40:46;;;;;;;5.17;3.27;;;23.40;90.20;;;;;;5012902;28;21706;-86
2022/07/06 06:43:11;;;;;;;5.07;3.90;;;24.30;92.60;;;;;;5009412;28;20473;-86
2022/07/06 06:45:37;;;;;;;8.13;3.50;;;24.50;90.50;;;;;;5011678;28;20612;-86
2022/07/06 06:48:03;;;;;;;3.87;3.57;;;25.00;90.10;;;;;;5021869;28;20477;-85
2022/07/06 06:50:29;;;;;;;3.37;3.07;;;24.60;88.10;;;;;;5022304;28;20460;-86
2022/07/06 06:52:55;;;;;;;5.30;3.97;;;24.40;90.10;;;;;;5015624;28;20478;-86
2022/07/06 06:55:20;;;;;;;5.00;3.57;;;23.80;91.20;;;;;;5013381;28;20192;-86
2022/07/06 06:57:46;;;;;;;5.37;3.40;;;24.40;91.20;;;;;;5012226;28;20186;-86
2022/07/06 07:00:12;;;;;;;8.10;3.50;;;25.00;90.00;;;;;;5020576;28;20255;-85
2022/07/06 07:02:38;;;;;;;8.90;4.23;;;24.70;90.20;;;;;;5007707;28;20225;-88
2022/07/06 07:05:05;;;;;;;6.90;3.53;;;23.30;88.40;;;;;;5011314;28;20495;-87
2022/07/06 07:07:30;;;;;;;6.27;3.70;;;22.60;93.20;;;;;;5013271;28;20452;-86
2022/07/06 07:09:56;;;;;;;8.00;3.10;;;23.00;93.30;;;;;;5018628;28;20498;-87
2022/07/06 07:12:21;;;;;;;8.70;3.80;;;22.80;93.50;;;;;;5013404;28;20206;-86
2022/07/06 07:14:47;;;;;;;5.50;3.43;;;23.90;93.60;;;;;;5011329;28;20281;-87
2022/07/06 07:17:13;;;;;;;3.17;2.80;;;25.10;90.50;;;;;;5014977;28;20270;-84
2022/07/06 07:19:39;;;;;;;9.20;3.00;;;26.80;89.60;;;;;;5020518;28;20213;-86
2022/07/06 07:22:04;;;;;;;5.17;2.67;;;28.50;82.90;;;;;;5017398;28;20671;-84
2022/07/06 07:24:30;;;;;;;6.10;3.00;;;27.00;83.70;;;;;;5020182;28;20472;-84
2022/07/06 07:26:55;;;;;;;5.17;3.13;;;26.40;80.50;;;;;;5012107;28;20188;-86
2022/07/06 07:29:21;;;;;;;4.53;2.70;;;27.10;81.00;;;;;;5008784;28;20225;-86
2022/07/06 07:31:47;;;;;;;4.23;2.87;;;26.20;80.70;;;;;;5017529;28;20658;-87
2022/07/06 07:34:12;;;;;;;7.17;3.80;;;25.20;82.60;;;;;;5012357;28;20189;-86
2022/07/06 07:36:38;;;;;;;3.63;2.93;;;25.20;85.30;;;;;;5019693;28;22680;-85
2022/07/06 07:39:04;;;;;;;4.00;2.80;;;26.50;84.60;;;;;;5011087;28;20204;-85
2022/07/06 07:41:30;;;;;;;3.33;2.80;;;29.00;79.70;;;;;;5012604;28;20178;-85
2022/07/06 07:43:55;;;;;;;3.80;2.83;;;30.50;72.50;;;;;;5019528;28;20275;-87
2022/07/06 07:46:21;;;;;;;7.70;3.40;;;31.70;67.30;;;;;;5008267;28;20270;-86
2022/07/06 07:48:46;;;;;;;6.10;2.90;;;32.10;62.80;;;;;;5012267;28;20214;-86
2022/07/06 07:51:12;;;;;;;4.00;2.80;;;29.80;62.20;;;;;;5015507;28;20187;-86
2022/07/06 07:53:37;;;;;;;4.67;2.60;;;29.40;68.00;;;;;;5013227;28;20207;-86
2022/07/06 07:56:03;;;;;;;5.60;3.30;;;29.30;64.80;;;;;;5013723;28;20566;-86
2022/07/06 07:58:29;;;;;;;3.80;2.80;;;29.70;63.50;;;;;;5010489;28;20234;-87
2022/07/06 08:00:54;;;;;;;4.90;2.40;;;29.70;67.40;;;;;;5014989;28;20202;-85
2022/07/06 08:03:20;;;;;;;8.37;3.67;;;29.30;67.60;;;;;;5009144;28;20714;-87
2022/07/06 08:05:47;;;;;;;2.90;2.40;;;28.40;67.50;;;;;;5021802;28;20187;-87
2022/07/06 08:08:13;;;;;;;6.87;3.00;;;29.40;64.20;;;;;;5014339;28;20253;-87
2022/07/06 08:10:38;;;;;;;4.23;3.20;;;29.40;65.30;;;;;;5015836;28;20429;-86
2022/07/06 08:13:04;;;;;;;4.63;2.70;;;27.90;65.10;;;;;;5013420;28;20694;-86
2022/07/06 08:15:31;;;;;;;6.83;3.10;;;27.70;68.60;;;;;;5016918;28;20187;-86
2022/07/06 08:17:56;;;;;;;9.07;2.70;;;27.60;70.50;;;;;;5012466;28;20468;-86
2022/07/06 08:20:22;;;;;;;18.50;2.90;;;29.60;70.50;;;;;;5015184;28;20471;-87
2022/07/06 08:22:47;;;;;;;6.67;2.60;;;29.90;65.30;;;;;;5025682;28;20186;-85
2022/07/06 08:25:13;;;;;;;5.00;2.80;;;30.50;62.90;;;;;;5018308;28;20277;-87
2022/07/06 08:27:38;;;;;;;4.30;2.40;;;30.60;63.60;;;;;;5024538;28;20187;-87
2022/07/06 08:30:05;;;;;;;4.23;2.90;;;32.00;61.70;;;;;;5014363;28;20213;-88
2022/07/06 08:32:31;;;;;;;5.60;3.33;;;30.70;59.20;;;;;;5015539;28;20198;-86
2022/07/06 08:34:56;;;;;;;5.30;3.27;;;30.50;60.10;;;;;;5026700;28;20445;-85
2022/07/06 08:37:21;;;;;;;6.43;3.63;;;30.30;58.80;;;;;;5035467;28;20237;-87
2022/07/06 08:39:47;;;;;;;5.40;3.17;;;29.80;60.30;;;;;;5028468;28;20766;-86
2022/07/06 08:42:15;;;;;;;5.97;2.77;;;30.10;59.60;;;;;;5055909;22;20225;-85
2022/07/06 08:44:42;;;;;;;13.03;3.77;;;31.30;59.00;;;;;;5044614;28;20180;-87
2022/07/06 08:47:10;;;;;;;12.17;3.30;;;31.20;57.80;;;;;;5058032;28;20466;-87
2022/07/06 08:49:37;;;;;;;4.90;3.30;;;31.50;58.40;;;;;;5039775;28;20457;-86
2022/07/06 08:52:04;;;;;;;5.23;4.57;;;31.70;57.80;;;;;;5042697;28;20850;-85
2022/07/06 08:54:30;;;;;;;5.33;4.93;;;32.10;56.10;;;;;;5048157;28;20510;-86
2022/07/06 08:56:55;;;;;;;5.23;4.83;;;31.10;55.30;;;;;;5039035;28;20493;-87
2022/07/06 08:59:21;;;;;;;4.87;4.40;;;30.30;57.50;;;;;;5041466;28;20526;-87
2022/07/06 09:01:48;;;;;;;4.10;3.60;;;29.40;58.20;;;;;;5041494;28;20178;-87
2022/07/06 09:04:16;;;;;;;3.80;3.10;;;29.30;60.00;;;;;;5043426;28;20263;-87
2022/07/06 09:06:45;;;;;;;4.33;3.80;;;29.20;59.80;;;;;;5046501;28;20433;-86
2022/07/06 09:09:14;;;;;;;3.73;3.40;;;28.60;61.00;;;;;;5042424;28;20475;-86
2022/07/06 09:11:39;;;;;;;5.60;4.03;;;27.50;63.60;;;;;;5040008;28;20435;-86
2022/07/06 09:14:05;;;;;;;11.27;3.57;;;27.20;64.80;;;;;;5041199;28;20449;-86
2022/07/06 09:16:30;;;;;;;5.87;4.43;;;26.80;66.90;;;;;;5039660;28;21411;-87
2022/07/06 09:18:57;;;;;;;5.87;4.00;;;26.50;68.30;;;;;;5039632;28;20192;-86
2022/07/06 09:21:25;;;;;;;4.30;3.40;;;26.30;69.10;;;;;;5042144;28;20181;-87
2022/07/06 09:24:00;;;;;;;6.50;3.90;;;27.80;67.80;;;;;;5040255;28;20786;-87
2022/07/06 09:26:26;;;;;;;4.93;3.90;;;28.40;64.40;;;;;;5039426;28;20571;-87
2022/07/06 09:28:54;;;;;;;8.27;4.03;;;27.20;65.80;;;;;;5039965;28;21435;-87
2022/07/06 09:31:19;;;;;;;3.90;3.40;;;27.20;67.30;;;;;;5038832;28;20781;-87
2022/07/06 09:34:05;;;;;;;5.53;3.50;;;28.30;67.30;;;;;;5046452;28;20486;-87
2022/07/06 09:36:45;;;;;;;8.73;4.37;;;28.10;67.00;;;;;;5037916;28;20168;-83
2022/07/06 09:39:26;;;;;;;12.43;4.07;;;27.60;66.20;;;;;;5034842;28;21192;-84
2022/07/06 09:41:56;;;;;;;6.43;5.20;;;28.70;66.00;;;;;;5038220;28;20440;-82
2022/07/06 09:44:27;;;;;;;7.47;3.80;;;28.50;65.50;;;;;;5036698;28;20459;-82
2022/07/06 09:46:56;;;;;;;6.50;4.10;;;27.10;63.60;;;;;;5044985;28;20434;-83
2022/07/06 09:49:22;;;;;;;4.23;3.77;;;27.40;67.10;;;;;;5037346;28;20456;-82
2022/07/06 09:51:51;;;;;;;6.40;4.90;;;28.30;64.80;;;;;;5038158;28;20435;-82
2022/07/06 09:54:17;;;;;;;4.73;3.53;;;26.80;65.10;;;;;;5039557;28;20433;-82
2022/07/06 09:56:50;;;;;;;5.90;3.70;;;26.10;67.90;;;;;;5037011;28;20434;-82
2022/07/06 09:59:17;;;;;;;9.37;4.07;;;25.90;71.70;;;;;;5035972;28;20456;-81
2022/07/06 10:01:43;;;;;;;8.23;4.47;;;25.20;70.70;;;;;;5036999;28;20458;-83
2022/07/06 10:04:14;;;;;;;9.90;3.77;;;25.10;74.10;;;;;;5037085;28;20795;-83
2022/07/06 10:06:41;;;;;;;6.43;4.00;;;25.60;73.10;;;;;;5039203;28;20444;-82
2022/07/06 10:09:08;;;;;;;4.63;4.00;;;26.20;71.50;;;;;;5041313;28;20473;-82
2022/07/06 10:11:38;;;;;;;3.70;3.40;;;27.20;69.60;;;;;;5039856;28;20474;-82
2022/07/06 10:14:06;;;;;;;3.83;3.00;;;28.10;68.00;;;;;;5038153;28;20428;-82
2022/07/06 10:16:33;;;;;;;3.87;3.57;;;28.30;64.40;;;;;;5039491;28;20437;-82
2022/07/06 10:19:01;;;;;;;9.03;3.57;;;26.70;64.70;;;;;;5037588;28;20529;-82
2022/07/06 10:21:26;;;;;;;8.03;3.70;;;25.00;71.10;;;;;;5041101;28;20520;-82
2022/07/06 10:23:53;;;;;;;4.97;3.90;;;25.50;74.10;;;;;;5036479;28;20524;-81
2022/07/06 10:26:23;;;;;;;3.90;3.33;;;26.20;70.80;;;;;;5039165;28;20192;-82
2022/07/06 10:28:50;;;;;;;7.40;3.73;;;27.00;68.40;;;;;;5036495;28;20458;-82
2022/07/06 10:31:17;;;;;;;8.23;5.07;;;27.20;69.70;;;;;;5036602;28;20442;-82
2022/07/06 10:33:44;;;;;;;9.83;5.23;;;26.80;70.10;;;;;;5039050;28;20473;-82
2022/07/06 10:36:10;;;;;;;7.97;4.10;;;27.70;67.70;;;;;;5040153;28;20458;-82
2022/07/06 10:38:36;;;;;;;4.77;4.27;;;27.80;66.20;;;;;;5039173;28;20462;-82
2022/07/06 10:41:04;;;;;;;8.87;5.63;;;27.20;66.00;;;;;;5038284;28;20438;-82
2022/07/06 10:43:41;;;;;;;5.93;3.77;;;26.10;68.90;;;;;;5036396;28;20244;-82
2022/07/06 10:46:08;;;;;;;9.27;4.20;;;25.20;73.20;;;;;;5035312;28;20428;-82
2022/07/06 10:48:41;;;;;;;5.50;3.60;;;24.60;74.80;;;;;;5038896;28;20466;-82
2022/07/06 10:51:08;;;;;;;9.63;4.73;;;24.40;80.10;;;;;;5038285;23;20525;-87
2022/07/06 10:53:36;;;;;;;7.50;3.90;;;24.00;78.70;;;;;;5024797;28;20477;-88
2022/07/06 10:56:06;;;;;;;7.70;4.30;;;27.40;82.10;;;;;;5022391;28;20445;-85
2022/07/06 10:58:52;;;;;;;4.97;4.50;;;24.30;79.60;;;;;;5028592;28;20430;-86
2022/07/06 11:01:20;;;;;;;7.67;4.87;;;24.50;80.70;;;;;;5026468;28;20450;-86
2022/07/06 11:04:04;;;;;;;10.13;3.73;;;26.50;80.10;;;;;;5019041;28;20990;-85
2022/07/06 11:06:36;;;;;;;9.27;4.33;;;24.60;78.50;;;;;;5022046;28;20422;-85
2022/07/06 11:09:07;;;;;;;5.87;4.20;;;24.40;80.00;;;;;;5014535;28;20519;-87
2022/07/06 11:11:35;;;;;;;3.73;3.43;;;24.00;80.00;;;;;;5015319;28;20459;-86
2022/07/06 11:14:07;;;;;;;14.73;5.10;;;23.80;82.40;;;;;;5008616;28;20822;-85
2022/07/06 11:17:01;;;;;;;11.50;4.97;;;23.60;80.40;;;;;;5015116;28;21103;-88
2022/07/06 11:19:27;;;;;;;8.90;4.10;;;23.60;82.80;;;;;;5008881;28;20556;-85
2022/07/06 11:21:58;;;;;;;10.80;4.47;;;23.40;83.60;;;;;;5014943;28;20536;-85
2022/07/06 11:24:24;;;;;;;3.87;3.40;;;23.60;83.80;;;;;;5012735;28;20444;-85
2022/07/06 11:26:51;;;;;;;7.57;4.40;;;23.70;85.40;;;;;;5013007;28;20425;-85
2022/07/06 11:29:22;;;;;;;6.57;4.37;;;24.20;83.00;;;;;;5010866;28;20167;-83
2022/07/06 11:31:50;;;;;;;8.73;4.40;;;24.10;80.80;;;;;;5006989;28;20982;-85
2022/07/06 11:34:27;;;;;;;5.87;4.07;;;23.00;82.90;;;;;;5019424;28;20859;-85
2022/07/06 11:36:57;;;;;;;4.20;3.60;;;22.80;87.20;;;;;;5005663;28;20521;-85
2022/07/06 11:39:29;;;;;;;4.53;4.13;;;23.50;87.10;;;;;;5008451;28;20969;-84
2022/07/06 11:41:56;;;;;;;7.63;4.60;;;23.70;83.00;;;;;;5009646;28;20468;-85
2022/07/06 11:44:22;;;;;;;10.37;3.80;;;23.80;83.20;;;;;;5005841;28;20430;-86
2022/07/06 11:46:48;;;;;;;3.83;3.30;;;23.90;82.90;;;;;;5007793;28;20435;-85
2022/07/06 11:49:14;;;;;;;7.17;3.70;;;23.80;83.40;;;;;;5017412;28;20444;-85
2022/07/06 11:51:40;;;;;;;11.40;4.33;;;23.80;83.90;;;;;;5013417;28;20552;-85
2022/07/06 11:54:11;;;;;;;6.63;4.00;;;23.70;82.40;;;;;;5011687;28;20509;-84
2022/07/06 11:56:37;;;;;;;4.23;3.83;;;23.70;83.60;;;;;;5023239;28;20471;-83
2022/07/06 11:59:04;;;;;;;11.10;5.10;;;23.30;82.80;;;;;;5015693;28;20787;-85
2022/07/06 12:01:31;;;;;;;4.57;3.80;;;23.10;81.90;;;;;;5014939;28;20453;-88
2022/07/06 12:04:01;;;;;;;4.50;3.60;;;23.30;84.70;;;;;;5022996;28;20432;-84
2022/07/06 12:06:28;;;;;;;5.80;3.40;;;23.90;83.70;;;;;;5020629;28;20472;-83
2022/07/06 12:08:55;;;;;;;3.53;2.70;;;23.30;82.10;;;;;;5022393;28;20430;-85
2022/07/06 12:11:24;;;;;;;4.30;3.33;;;23.10;82.70;;;;;;5028036;28;20489;-84
2022/07/06 12:13:52;;;;;;;4.93;3.07;;;23.50;81.60;;;;;;5018005;28;20452;-85
2022/07/06 12:16:19;;;;;;;4.00;3.67;;;23.70;82.60;;;;;;5020552;28;20772;-86
2022/07/06 12:18:47;;;;;;;9.80;3.33;;;23.10;81.00;;;;;;5022917;28;20475;-84
2022/07/06 12:21:18;;;;;;;4.00;3.00;;;22.90;82.70;;;;;;5024224;28;20441;-84
2022/07/06 12:23:46;;;;;;;5.17;3.40;;;23.10;83.30;;;;;;5023873;28;20433;-86
2022/07/06 12:26:14;;;;;;;4.87;3.43;;;22.70;79.70;;;;;;5020974;28;21284;-84
2022/07/06 12:28:40;;;;;;;5.50;3.53;;;23.40;81.70;;;;;;5017707;28;20509;-85
2022/07/06 12:31:06;;;;;;;2.90;2.57;;;23.50;82.40;;;;;;5018360;28;20456;-86
2022/07/06 12:33:31;;;;;;;3.50;2.60;;;23.70;78.80;;;;;;5019593;28;20838;-85
2022/07/06 12:36:08;;;;;;;3.83;2.30;;;23.60;81.20;;;;;;5023216;28;20197;-83
2022/07/06 12:38:33;;;;;;;4.63;3.07;;;23.50;80.20;;;;;;5014842;28;20199;-85
2022/07/06 12:41:02;;;;;;;3.83;2.80;;;23.60;79.60;;;;;;5014968;28;20453;-87
2022/07/06 12:43:37;;;;;;;4.70;3.07;;;23.30;77.50;;;;;;5020132;28;20170;-88
2022/07/06 12:46:32;;;;;;;8.50;3.00;;;23.10;80.70;;;;;;5017838;28;20413;-88
2022/07/06 12:48:59;;;;;;;5.53;2.90;;;23.40;82.00;;;;;;5019050;28;20917;-88